sensor_id;sensor_type;location;lat;lon;timestamp;pressure;altitude;pressure_sealevel;temperature;humidity
9523;BME280;63165;43.016;25.784;2023-10-09T00:01:51;100638.19;;;15.31;56.16
9523;BME280;63165;43.016;25.784;2023-10-09T00:04:19;100639.97;;;15.30;56.06
9523;BME280;63165;43.016;25.784;2023-10-09T00:06:49;100633.13;;;15.23;56.47
9523;BME280;63165;43.016;25.784;2023-10-09T00:09:16;100633.13;;;15.23;55.90
9523;BME280;63165;43.016;25.784;2023-10-09T00:12:06;100633.19;;;15.22;55.78
9523;BME280;63165;43.016;25.784;2023-10-09T00:14:36;100634.94;;;15.21;56.08
9523;BME280;63165;43.016;25.784;2023-10-09T00:17:04;100635.88;;;15.19;55.00
9523;BME280;63165;43.016;25.784;2023-10-09T00:19:43;100631.56;;;15.16;55.11
9523;BME280;63165;43.016;25.784;2023-10-09T00:22:14;100643.06;;;15.13;54.74
9523;BME280;63165;43.016;25.784;2023-10-09T00:24:54;100646.59;;;15.12;54.72
9523;BME280;63165;43.016;25.784;2023-10-09T00:27:37;100640.44;;;15.13;54.99
9523;BME280;63165;43.016;25.784;2023-10-09T00:30:09;100651.00;;;15.12;54.72
9523;BME280;63165;43.016;25.784;2023-10-09T00:32:37;100655.50;;;15.08;55.07
9523;BME280;63165;43.016;25.784;2023-10-09T00:35:11;100659.00;;;15.07;55.37
9523;BME280;63165;43.016;25.784;2023-10-09T00:37:56;100654.63;;;15.08;55.36
9523;BME280;63165;43.016;25.784;2023-10-09T00:40:32;100651.06;;;15.09;54.56
9523;BME280;63165;43.016;25.784;2023-10-09T00:43:02;100659.94;;;15.06;54.42
9523;BME280;63165;43.016;25.784;2023-10-09T00:45:32;100664.44;;;15.01;54.42
9523;BME280;63165;43.016;25.784;2023-10-09T00:48:05;100665.41;;;14.99;54.41
9523;BME280;63165;43.016;25.784;2023-10-09T00:50:34;100668.88;;;15.01;54.35
9523;BME280;63165;43.016;25.784;2023-10-09T00:53:06;100684.78;;;14.96;54.95
9523;BME280;63165;43.016;25.784;2023-10-09T00:55:38;100671.50;;;15.01;54.50
9523;BME280;63165;43.016;25.784;2023-10-09T00:58:12;100672.31;;;15.03;54.87
9523;BME280;63165;43.016;25.784;2023-10-09T01:00:40;100669.63;;;15.06;54.92
9523;BME280;63165;43.016;25.784;2023-10-09T01:03:14;100673.94;;;15.08;54.74
9523;BME280;63165;43.016;25.784;2023-10-09T01:05:46;100669.56;;;15.07;54.50
9523;BME280;63165;43.016;25.784;2023-10-09T01:08:19;100674.81;;;15.07;54.06
9523;BME280;63165;43.016;25.784;2023-10-09T01:10:54;100675.81;;;15.03;53.86
9523;BME280;63165;43.016;25.784;2023-10-09T01:13:24;100683.75;;;15.02;54.10
9523;BME280;63165;43.016;25.784;2023-10-09T01:16:06;100696.09;;;15.00;54.48
9523;BME280;63165;43.016;25.784;2023-10-09T01:18:34;100688.16;;;15.01;53.90
9523;BME280;63165;43.016;25.784;2023-10-09T01:21:06;100694.28;;;15.02;53.75
9523;BME280;63165;43.016;25.784;2023-10-09T01:23:35;100700.56;;;14.98;54.34
9523;BME280;63165;43.016;25.784;2023-10-09T01:26:24;100704.16;;;14.93;54.45
9523;BME280;63165;43.016;25.784;2023-10-09T01:28:52;100724.38;;;14.94;53.65
9523;BME280;63165;43.016;25.784;2023-10-09T01:31:23;100712.00;;;14.97;53.16
9523;BME280;63165;43.016;25.784;2023-10-09T01:33:52;100708.47;;;14.98;52.93
9523;BME280;63165;43.016;25.784;2023-10-09T01:36:25;100717.25;;;14.98;50.92
9523;BME280;63165;43.016;25.784;2023-10-09T01:39:00;100736.59;;;14.97;50.97
9523;BME280;63165;43.016;25.784;2023-10-09T01:41:28;100735.72;;;14.97;50.03
9523;BME280;63165;43.016;25.784;2023-10-09T01:43:59;100746.31;;;14.95;49.59
9523;BME280;63165;43.016;25.784;2023-10-09T01:46:36;100748.09;;;14.93;49.44
9523;BME280;63165;43.016;25.784;2023-10-09T01:49:03;100755.22;;;14.89;48.45
9523;BME280;63165;43.016;25.784;2023-10-09T01:51:39;100757.94;;;14.85;47.69
9523;BME280;63165;43.016;25.784;2023-10-09T01:54:07;100761.47;;;14.85;47.34
9523;BME280;63165;43.016;25.784;2023-10-09T01:56:42;100755.31;;;14.85;47.26
9523;BME280;63165;43.016;25.784;2023-10-09T01:59:12;100756.25;;;14.82;47.17
9523;BME280;63165;43.016;25.784;2023-10-09T02:01:41;100758.94;;;14.79;46.68
9523;BME280;63165;43.016;25.784;2023-10-09T02:04:13;100759.91;;;14.77;46.46
9523;BME280;63165;43.016;25.784;2023-10-09T02:06:45;100767.00;;;14.73;46.64
9523;BME280;63165;43.016;25.784;2023-10-09T02:09:18;100769.66;;;14.71;47.07
9523;BME280;63165;43.016;25.784;2023-10-09T02:11:52;100766.31;;;14.65;46.47
9523;BME280;63165;43.016;25.784;2023-10-09T02:14:19;100780.28;;;14.68;46.73
9523;BME280;63165;43.016;25.784;2023-10-09T02:16:48;100782.13;;;14.65;45.99
9523;BME280;63165;43.016;25.784;2023-10-09T02:19:29;100789.22;;;14.61;46.29
9523;BME280;63165;43.016;25.784;2023-10-09T02:22:01;100790.09;;;14.60;46.16
9523;BME280;63165;43.016;25.784;2023-10-09T02:24:39;100796.22;;;14.61;46.31
9523;BME280;63165;43.016;25.784;2023-10-09T02:27:33;100817.38;;;14.58;46.94
9523;BME280;63165;43.016;25.784;2023-10-09T02:30:12;100797.16;;;14.56;46.28
9523;BME280;63165;43.016;25.784;2023-10-09T02:32:45;100792.03;;;14.50;46.78
9523;BME280;63165;43.016;25.784;2023-10-09T02:35:18;100796.34;;;14.53;46.86
9523;BME280;63165;43.016;25.784;2023-10-09T02:37:57;100798.06;;;14.55;46.40
9523;BME280;63165;43.016;25.784;2023-10-09T02:40:28;100801.63;;;14.53;46.30
9523;BME280;63165;43.016;25.784;2023-10-09T02:42:58;100806.03;;;14.52;46.96
9523;BME280;63165;43.016;25.784;2023-10-09T02:45:26;100799.06;;;14.50;46.42
9523;BME280;63165;43.016;25.784;2023-10-09T02:47:58;100792.09;;;14.47;47.07
9523;BME280;63165;43.016;25.784;2023-10-09T02:50:25;100795.59;;;14.48;46.69
9523;BME280;63165;43.016;25.784;2023-10-09T02:52:54;100806.16;;;14.46;47.06
9523;BME280;63165;43.016;25.784;2023-10-09T02:55:35;100802.69;;;14.44;47.21
9523;BME280;63165;43.016;25.784;2023-10-09T02:58:04;100803.56;;;14.45;47.07
9523;BME280;63165;43.016;25.784;2023-10-09T03:00:33;100796.66;;;14.39;46.62
9523;BME280;63165;43.016;25.784;2023-10-09T03:03:03;100803.69;;;14.39;47.17
9523;BME280;63165;43.016;25.784;2023-10-09T03:05:32;100800.16;;;14.38;47.23
9523;BME280;63165;43.016;25.784;2023-10-09T03:08:03;100809.78;;;14.41;47.51
9523;BME280;63165;43.016;25.784;2023-10-09T03:10:30;100812.44;;;14.41;47.46
9523;BME280;63165;43.016;25.784;2023-10-09T03:13:01;100815.09;;;14.39;47.65
9523;BME280;63165;43.016;25.784;2023-10-09T03:15:31;100815.06;;;14.41;47.71
9523;BME280;63165;43.016;25.784;2023-10-09T03:18:01;100823.81;;;14.41;47.76
9523;BME280;63165;43.016;25.784;2023-10-09T03:20:30;100814.13;;;14.43;47.85
9523;BME280;63165;43.016;25.784;2023-10-09T03:22:57;100822.88;;;14.44;47.67
9523;BME280;63165;43.016;25.784;2023-10-09T03:25:27;100822.00;;;14.43;48.11
9523;BME280;63165;43.016;25.784;2023-10-09T03:27:54;100819.38;;;14.43;47.73
9523;BME280;63165;43.016;25.784;2023-10-09T03:30:25;100821.13;;;14.44;48.16
9523;BME280;63165;43.016;25.784;2023-10-09T03:32:53;100822.03;;;14.42;48.49
9523;BME280;63165;43.016;25.784;2023-10-09T03:35:21;100830.84;;;14.42;48.54
9523;BME280;63165;43.016;25.784;2023-10-09T03:37:54;100822.00;;;14.45;48.89
9523;BME280;63165;43.016;25.784;2023-10-09T03:40:23;100824.56;;;14.48;49.74
9523;BME280;63165;43.016;25.784;2023-10-09T03:42:51;100830.69;;;14.48;48.91
9523;BME280;63165;43.016;25.784;2023-10-09T03:45:18;100826.22;;;14.53;49.47
9523;BME280;63165;43.016;25.784;2023-10-09T03:47:54;100849.84;;;14.55;49.42
9523;BME280;63165;43.016;25.784;2023-10-09T03:50:27;100834.13;;;14.53;49.07
9523;BME280;63165;43.016;25.784;2023-10-09T03:53:04;100839.41;;;14.52;49.44
9523;BME280;63165;43.016;25.784;2023-10-09T03:55:40;100842.91;;;14.51;48.72
9523;BME280;63165;43.016;25.784;2023-10-09T03:58:07;100837.69;;;14.49;49.16
9523;BME280;63165;43.016;25.784;2023-10-09T04:00:37;100843.00;;;14.48;49.40
9523;BME280;63165;43.016;25.784;2023-10-09T04:03:12;100864.16;;;14.43;49.69
9523;BME280;63165;43.016;25.784;2023-10-09T04:05:40;100860.50;;;14.50;49.84
9523;BME280;63165;43.016;25.784;2023-10-09T04:08:09;100856.13;;;14.49;49.89
9523;BME280;63165;43.016;25.784;2023-10-09T04:10:45;100854.34;;;14.51;50.12
9523;BME280;63165;43.016;25.784;2023-10-09T04:13:19;100856.91;;;14.53;49.49
9523;BME280;63165;43.016;25.784;2023-10-09T04:15:52;100850.78;;;14.54;49.75
9523;BME280;63165;43.016;25.784;2023-10-09T04:18:21;100855.97;;;14.59;50.34
9523;BME280;63165;43.016;25.784;2023-10-09T04:20:58;100861.22;;;14.59;50.82
9523;BME280;63165;43.016;25.784;2023-10-09T04:23:56;100866.44;;;14.62;49.97
9523;BME280;63165;43.016;25.784;2023-10-09T04:26:41;100866.41;;;14.63;50.37
9523;BME280;63165;43.016;25.784;2023-10-09T04:29:10;100873.38;;;14.66;50.35
9523;BME280;63165;43.016;25.784;2023-10-09T04:31:45;100872.47;;;14.68;50.68
9523;BME280;63165;43.016;25.784;2023-10-09T04:34:19;100875.06;;;14.70;51.02
9523;BME280;63165;43.016;25.784;2023-10-09T04:36:49;100886.41;;;14.73;50.72
9523;BME280;63165;43.016;25.784;2023-10-09T04:39:16;100884.66;;;14.74;51.37
9523;BME280;63165;43.016;25.784;2023-10-09T04:42:01;100882.06;;;14.71;51.54
9523;BME280;63165;43.016;25.784;2023-10-09T04:45:03;100891.78;;;14.69;52.11
9523;BME280;63165;43.016;25.784;2023-10-09T04:47:51;100889.16;;;14.67;52.29
9523;BME280;63165;43.016;25.784;2023-10-09T04:50:34;100889.19;;;14.66;52.03
9523;BME280;63165;43.016;25.784;2023-10-09T04:53:32;100887.44;;;14.66;51.99
9523;BME280;63165;43.016;25.784;2023-10-09T04:56:09;100903.28;;;14.65;51.31
9523;BME280;63165;43.016;25.784;2023-10-09T04:58:41;100900.63;;;14.65;51.27
9523;BME280;63165;43.016;25.784;2023-10-09T05:01:09;100903.28;;;14.63;50.76
9523;BME280;63165;43.016;25.784;2023-10-09T05:03:41;100909.47;;;14.61;50.64
9523;BME280;63165;43.016;25.784;2023-10-09T05:06:19;100916.59;;;14.57;50.68
9523;BME280;63165;43.016;25.784;2023-10-09T05:09:04;100919.25;;;14.52;50.32
9523;BME280;63165;43.016;25.784;2023-10-09T05:11:40;100917.59;;;14.48;49.78
9523;BME280;63165;43.016;25.784;2023-10-09T05:14:20;100921.16;;;14.46;49.03
9523;BME280;63165;43.016;25.784;2023-10-09T05:17:03;100922.91;;;14.45;49.31
9523;BME280;63165;43.016;25.784;2023-10-09T05:19:32;100929.91;;;14.48;49.21
9523;BME280;63165;43.016;25.784;2023-10-09T05:22:22;100922.03;;;14.46;48.78
9523;BME280;63165;43.016;25.784;2023-10-09T05:25:04;100941.34;;;14.45;48.55
9523;BME280;63165;43.016;25.784;2023-10-09T05:27:42;100954.50;;;14.45;48.45
9523;BME280;63165;43.016;25.784;2023-10-09T05:30:16;100944.88;;;14.46;48.47
9523;BME280;63165;43.016;25.784;2023-10-09T05:32:53;100944.81;;;14.47;48.58
9523;BME280;63165;43.016;25.784;2023-10-09T05:35:24;100941.28;;;14.48;47.88
9523;BME280;63165;43.016;25.784;2023-10-09T05:38:09;100939.59;;;14.46;48.31
9523;BME280;63165;43.016;25.784;2023-10-09T05:40:50;100945.75;;;14.45;48.28
9523;BME280;63165;43.016;25.784;2023-10-09T05:43:20;100954.44;;;14.50;47.46
9523;BME280;63165;43.016;25.784;2023-10-09T05:46:01;100949.97;;;14.53;47.76
9523;BME280;63165;43.016;25.784;2023-10-09T05:48:35;100964.00;;;14.57;47.81
9523;BME280;63165;43.016;25.784;2023-10-09T05:51:21;100971.91;;;14.57;48.35
9523;BME280;63165;43.016;25.784;2023-10-09T05:54:07;100970.06;;;14.61;47.84
9523;BME280;63165;43.016;25.784;2023-10-09T05:56:57;100972.63;;;14.64;47.59
9523;BME280;63165;43.016;25.784;2023-10-09T05:59:56;100973.50;;;14.64;47.59
9523;BME280;63165;43.016;25.784;2023-10-09T06:02:40;100977.03;;;14.65;47.16
9523;BME280;63165;43.016;25.784;2023-10-09T06:05:24;100978.81;;;14.63;47.69
9523;BME280;63165;43.016;25.784;2023-10-09T06:08:28;100993.72;;;14.64;47.72
9523;BME280;63165;43.016;25.784;2023-10-09T06:11:26;100994.53;;;14.66;47.99
9523;BME280;63165;43.016;25.784;2023-10-09T06:14:05;100994.47;;;14.72;47.83
9523;BME280;63165;43.016;25.784;2023-10-09T06:16:41;100999.66;;;14.73;47.76
9523;BME280;63165;43.016;25.784;2023-10-09T06:19:07;100997.94;;;14.74;47.99
9523;BME280;63165;43.016;25.784;2023-10-09T06:21:37;101003.13;;;14.75;47.68
9523;BME280;63165;43.016;25.784;2023-10-09T06:24:21;101003.13;;;14.75;47.97
9523;BME280;63165;43.016;25.784;2023-10-09T06:26:50;101010.13;;;14.80;47.57
9523;BME280;63165;43.016;25.784;2023-10-09T06:29:49;101004.75;;;14.83;47.81
9523;BME280;63165;43.016;25.784;2023-10-09T06:32:39;101007.34;;;14.86;47.87
9523;BME280;63165;43.016;25.784;2023-10-09T06:35:16;101002.94;;;14.86;47.69
9523;BME280;63165;43.016;25.784;2023-10-09T06:37:45;101016.94;;;14.90;48.30
9523;BME280;63165;43.016;25.784;2023-10-09T06:40:30;101023.03;;;14.92;47.71
9523;BME280;63165;43.016;25.784;2023-10-09T06:43:17;101020.34;;;14.97;47.71
9523;BME280;63165;43.016;25.784;2023-10-09T06:45:53;101030.84;;;14.98;47.44
9523;BME280;63165;43.016;25.784;2023-10-09T06:48:23;101027.41;;;14.94;46.99
9523;BME280;63165;43.016;25.784;2023-10-09T06:51:11;101031.78;;;14.94;47.04
9523;BME280;63165;43.016;25.784;2023-10-09T06:53:41;101034.44;;;14.92;47.02
9523;BME280;63165;43.016;25.784;2023-10-09T06:56:29;101033.59;;;14.90;47.05
9523;BME280;63165;43.016;25.784;2023-10-09T06:59:19;101038.00;;;14.91;46.96
9523;BME280;63165;43.016;25.784;2023-10-09T07:01:48;101016.88;;;14.94;46.33
9523;BME280;63165;43.016;25.784;2023-10-09T07:04:38;101024.72;;;14.96;46.54
9523;BME280;63165;43.016;25.784;2023-10-09T07:07:14;101029.97;;;14.98;46.20
9523;BME280;63165;43.016;25.784;2023-10-09T07:09:42;101031.72;;;14.99;45.86
9523;BME280;63165;43.016;25.784;2023-10-09T07:12:29;101026.41;;;15.00;45.89
9523;BME280;63165;43.016;25.784;2023-10-09T07:15:00;101024.59;;;15.04;46.13
9523;BME280;63165;43.016;25.784;2023-10-09T07:17:44;101014.81;;;15.09;46.00
9523;BME280;63165;43.016;25.784;2023-10-09T07:20:12;101013.00;;;15.11;46.06
9523;BME280;63165;43.016;25.784;2023-10-09T07:23:02;101025.16;;;15.18;46.14
9523;BME280;63165;43.016;25.784;2023-10-09T07:25:43;101022.47;;;15.21;46.16
9523;BME280;63165;43.016;25.784;2023-10-09T07:28:25;101011.88;;;15.24;46.22
9523;BME280;63165;43.016;25.784;2023-10-09T07:31:16;101015.25;;;15.31;46.22
9523;BME280;63165;43.016;25.784;2023-10-09T07:33:51;101006.28;;;15.40;46.11
9523;BME280;63165;43.016;25.784;2023-10-09T07:36:23;101006.16;;;15.44;46.09
9523;BME280;63165;43.016;25.784;2023-10-09T07:39:04;100999.84;;;15.53;45.72
9523;BME280;63165;43.016;25.784;2023-10-09T07:41:48;100996.97;;;15.64;45.78
9523;BME280;63165;43.016;25.784;2023-10-09T07:44:32;100998.50;;;15.72;45.02
9523;BME280;63165;43.016;25.784;2023-10-09T07:47:05;101002.88;;;15.77;45.62
9523;BME280;63165;43.016;25.784;2023-10-09T07:49:44;101003.56;;;15.83;44.93
9523;BME280;63165;43.016;25.784;2023-10-09T07:52:18;100999.88;;;15.92;44.70
9523;BME280;63165;43.016;25.784;2023-10-09T07:54:49;101010.09;;;16.06;45.06
9523;BME280;63165;43.016;25.784;2023-10-09T07:57:29;101001.75;;;16.23;44.57
9523;BME280;63165;43.016;25.784;2023-10-09T08:00:05;101000.66;;;16.32;44.15
9523;BME280;63165;43.016;25.784;2023-10-09T08:02:48;101004.97;;;16.34;44.33
9523;BME280;63165;43.016;25.784;2023-10-09T08:05:15;101001.28;;;16.41;43.58
9523;BME280;63165;43.016;25.784;2023-10-09T08:07:45;100996.78;;;16.45;43.60
9523;BME280;63165;43.016;25.784;2023-10-09T08:10:23;100993.94;;;16.53;43.09
9523;BME280;63165;43.016;25.784;2023-10-09T08:13:07;101000.00;;;16.58;43.74
9523;BME280;63165;43.016;25.784;2023-10-09T08:15:55;100994.53;;;16.64;43.14
9523;BME280;63165;43.016;25.784;2023-10-09T08:18:28;100995.28;;;16.69;42.82
9523;BME280;63165;43.016;25.784;2023-10-09T08:20:54;100998.56;;;16.77;43.40
9523;BME280;63165;43.016;25.784;2023-10-09T08:23:39;100999.22;;;16.87;42.79
9523;BME280;63165;43.016;25.784;2023-10-09T08:26:16;101003.56;;;16.90;43.39
9523;BME280;63165;43.016;25.784;2023-10-09T08:28:55;101001.41;;;17.04;43.27
9523;BME280;63165;43.016;25.784;2023-10-09T08:31:42;100997.53;;;17.16;42.82
9523;BME280;63165;43.016;25.784;2023-10-09T08:34:13;101000.88;;;17.22;42.81
9523;BME280;63165;43.016;25.784;2023-10-09T08:36:51;101002.16;;;17.39;42.78
9523;BME280;63165;43.016;25.784;2023-10-09T08:39:18;100991.31;;;17.48;42.60
9523;BME280;63165;43.016;25.784;2023-10-09T08:41:51;100996.22;;;17.60;41.87
9523;BME280;63165;43.016;25.784;2023-10-09T08:44:20;100993.97;;;17.76;41.73
9523;BME280;63165;43.016;25.784;2023-10-09T08:46:50;101002.28;;;17.94;41.97
9523;BME280;63165;43.016;25.784;2023-10-09T08:49:21;100984.81;;;18.15;41.49
9523;BME280;63165;43.016;25.784;2023-10-09T08:51:48;100986.94;;;18.30;40.82
9523;BME280;63165;43.016;25.784;2023-10-09T08:54:18;100975.81;;;18.46;41.21
9523;BME280;63165;43.016;25.784;2023-10-09T08:56:45;100968.34;;;18.57;40.56
9523;BME280;63165;43.016;25.784;2023-10-09T08:59:16;100959.13;;;18.69;40.54
9523;BME280;63165;43.016;25.784;2023-10-09T09:01:45;100965.00;;;18.77;40.26
9523;BME280;63165;43.016;25.784;2023-10-09T09:04:36;100974.75;;;18.76;40.30
9523;BME280;63165;43.016;25.784;2023-10-09T09:07:05;100964.31;;;18.72;40.83
9523;BME280;63165;43.016;25.784;2023-10-09T09:09:33;100965.19;;;18.72;40.86
9523;BME280;63165;43.016;25.784;2023-10-09T09:12:01;100971.97;;;18.81;41.34
9523;BME280;63165;43.016;25.784;2023-10-09T09:14:37;100955.91;;;18.86;40.74
9523;BME280;63165;43.016;25.784;2023-10-09T09:17:06;100954.63;;;18.96;41.37
9523;BME280;63165;43.016;25.784;2023-10-09T09:19:38;100948.13;;;19.05;41.30
9523;BME280;63165;43.016;25.784;2023-10-09T09:22:05;100946.22;;;19.08;40.40
9523;BME280;63165;43.016;25.784;2023-10-09T09:24:39;100932.66;;;19.16;40.51
9523;BME280;63165;43.016;25.784;2023-10-09T09:27:11;100926.34;;;19.18;41.19
9523;BME280;63165;43.016;25.784;2023-10-09T09:29:46;100918.03;;;19.28;40.88
9523;BME280;63165;43.016;25.784;2023-10-09T09:32:29;100926.44;;;19.39;40.79
9523;BME280;63165;43.016;25.784;2023-10-09T09:35:03;100914.06;;;19.39;40.21
9523;BME280;63165;43.016;25.784;2023-10-09T09:37:33;100905.91;;;19.44;40.13
9523;BME280;63165;43.016;25.784;2023-10-09T09:40:16;100892.25;;;19.53;39.70
9523;BME280;63165;43.016;25.784;2023-10-09T09:42:57;100884.25;;;19.55;39.50
9523;BME280;63165;43.016;25.784;2023-10-09T09:45:32;100888.19;;;19.67;39.74
9523;BME280;63165;43.016;25.784;2023-10-09T09:48:02;100882.47;;;19.77;39.36
9523;BME280;63165;43.016;25.784;2023-10-09T09:50:33;100875.31;;;19.80;38.91
9523;BME280;63165;43.016;25.784;2023-10-09T09:53:09;100881.53;;;19.78;39.10
9523;BME280;63165;43.016;25.784;2023-10-09T09:55:45;100880.66;;;19.78;38.92
9523;BME280;63165;43.016;25.784;2023-10-09T09:58:18;100869.94;;;19.81;38.85
9523;BME280;63165;43.016;25.784;2023-10-09T10:00:47;100873.16;;;19.88;39.00
9523;BME280;63165;43.016;25.784;2023-10-09T10:03:22;100864.75;;;19.98;38.89
9523;BME280;63165;43.016;25.784;2023-10-09T10:05:52;100863.75;;;20.01;38.57
9523;BME280;63165;43.016;25.784;2023-10-09T10:08:23;100875.84;;;20.08;39.01
9523;BME280;63165;43.016;25.784;2023-10-09T10:10:57;100857.16;;;20.30;39.30
9523;BME280;63165;43.016;25.784;2023-10-09T10:13:55;100857.38;;;20.46;38.74
9523;BME280;63165;43.016;25.784;2023-10-09T10:16:25;100847.00;;;20.59;37.61
9523;BME280;63165;43.016;25.784;2023-10-09T10:19:01;100839.59;;;20.67;37.54
9523;BME280;63165;43.016;25.784;2023-10-09T10:21:49;100833.69;;;20.80;37.27
9523;BME280;63165;43.016;25.784;2023-10-09T10:24:40;100826.44;;;20.83;37.32
9523;BME280;63165;43.016;25.784;2023-10-09T10:27:20;100824.44;;;20.88;37.31
9523;BME280;63165;43.016;25.784;2023-10-09T10:30:27;100825.00;;;20.95;36.99
9523;BME280;63165;43.016;25.784;2023-10-09T10:33:09;100811.53;;;20.98;36.89
9523;BME280;63165;43.016;25.784;2023-10-09T10:35:38;100794.41;;;21.04;36.71
9523;BME280;63165;43.016;25.784;2023-10-09T10:38:32;100785.72;;;21.00;36.22
9523;BME280;63165;43.016;25.784;2023-10-09T10:41:23;100796.22;;;21.03;36.73
9523;BME280;63165;43.016;25.784;2023-10-09T10:43:50;100791.56;;;21.08;36.50
9523;BME280;63165;43.016;25.784;2023-10-09T10:46:46;100770.09;;;21.11;35.99
9523;BME280;63165;43.016;25.784;2023-10-09T10:49:18;100766.13;;;21.20;35.52
9523;BME280;63165;43.016;25.784;2023-10-09T10:51:48;100756.25;;;21.22;34.92
9523;BME280;63165;43.016;25.784;2023-10-09T10:54:28;100749.00;;;21.26;35.80
9523;BME280;63165;43.016;25.784;2023-10-09T10:57:19;100746.50;;;21.40;35.61
9523;BME280;63165;43.016;25.784;2023-10-09T10:59:57;100747.50;;;21.57;35.29
9523;BME280;63165;43.016;25.784;2023-10-09T11:03:00;100729.38;;;21.63;34.71
9523;BME280;63165;43.016;25.784;2023-10-09T11:05:41;100737.59;;;21.76;35.62
9523;BME280;63165;43.016;25.784;2023-10-09T11:08:16;100725.34;;;21.89;34.79
9523;BME280;63165;43.016;25.784;2023-10-09T11:10:50;100715.47;;;21.91;34.16
9523;BME280;63165;43.016;25.784;2023-10-09T11:13:22;100708.88;;;21.99;33.91
9523;BME280;63165;43.016;25.784;2023-10-09T11:15:59;100705.44;;;22.13;33.91
9523;BME280;63165;43.016;25.784;2023-10-09T11:18:41;100712.84;;;22.23;33.65
9523;BME280;63165;43.016;25.784;2023-10-09T11:21:14;100708.31;;;22.25;34.44
9523;BME280;63165;43.016;25.784;2023-10-09T11:23:58;100695.19;;;22.38;33.67
9523;BME280;63165;43.016;25.784;2023-10-09T11:26:27;100684.97;;;22.46;33.26
9523;BME280;63165;43.016;25.784;2023-10-09T11:29:10;100680.50;;;22.47;32.92
9523;BME280;63165;43.016;25.784;2023-10-09T11:31:40;100671.19;;;22.54;33.42
9523;BME280;63165;43.016;25.784;2023-10-09T11:34:20;100671.13;;;22.56;33.32
9523;BME280;63165;43.016;25.784;2023-10-09T11:36:56;100663.97;;;22.56;33.25
9523;BME280;63165;43.016;25.784;2023-10-09T11:39:25;100661.63;;;22.66;32.99
9523;BME280;63165;43.016;25.784;2023-10-09T11:42:05;100646.22;;;22.71;33.66
9523;BME280;63165;43.016;25.784;2023-10-09T11:44:38;100643.09;;;22.79;33.73
9523;BME280;63165;43.016;25.784;2023-10-09T11:47:10;100642.34;;;22.77;33.08
9523;BME280;63165;43.016;25.784;2023-10-09T11:49:52;100642.75;;;22.85;33.36
9523;BME280;63165;43.016;25.784;2023-10-09T11:52:55;100624.84;;;22.87;32.48
9523;BME280;63165;43.016;25.784;2023-10-09T11:55:35;100619.72;;;22.98;32.69
9523;BME280;63165;43.016;25.784;2023-10-09T11:58:03;100608.78;;;23.03;32.27
9523;BME280;63165;43.016;25.784;2023-10-09T12:00:32;100599.59;;;23.09;32.42
9523;BME280;63165;43.016;25.784;2023-10-09T12:03:10;100597.38;;;23.15;32.03
9523;BME280;63165;43.016;25.784;2023-10-09T12:05:39;100584.25;;;23.12;31.61
9523;BME280;63165;43.016;25.784;2023-10-09T12:08:10;100590.59;;;23.10;32.69
9523;BME280;63165;43.016;25.784;2023-10-09T12:10:41;100583.94;;;23.17;32.00
9523;BME280;63165;43.016;25.784;2023-10-09T12:13:10;100578.81;;;23.28;31.80
9523;BME280;63165;43.016;25.784;2023-10-09T12:15:38;100583.97;;;23.31;32.45
9523;BME280;63165;43.016;25.784;2023-10-09T12:18:06;100582.81;;;23.35;32.00
9523;BME280;63165;43.016;25.784;2023-10-09T12:20:40;100595.31;;;23.35;32.28
9523;BME280;63165;43.016;25.784;2023-10-09T12:23:13;100578.91;;;23.41;32.57
9523;BME280;63165;43.016;25.784;2023-10-09T12:25:40;100573.50;;;23.42;32.79
9523;BME280;63165;43.016;25.784;2023-10-09T12:28:12;100557.28;;;23.45;32.44
9523;BME280;63165;43.016;25.784;2023-10-09T12:30:39;100541.13;;;23.47;32.31
9523;BME280;63165;43.016;25.784;2023-10-09T12:33:08;100560.72;;;23.48;32.29
9523;BME280;63165;43.016;25.784;2023-10-09T12:35:39;100543.81;;;23.47;32.66
9523;BME280;63165;43.016;25.784;2023-10-09T12:38:07;100526.47;;;23.40;32.29
9523;BME280;63165;43.016;25.784;2023-10-09T12:40:38;100542.59;;;23.38;31.58
9523;BME280;63165;43.016;25.784;2023-10-09T12:45:42;100531.63;;;23.29;32.02
9523;BME280;63165;43.016;25.784;2023-10-09T12:48:10;100538.75;;;23.28;31.59
9523;BME280;63165;43.016;25.784;2023-10-09T12:50:40;100534.31;;;23.29;31.71
9523;BME280;63165;43.016;25.784;2023-10-09T12:53:10;100529.31;;;23.22;32.33
9523;BME280;63165;43.016;25.784;2023-10-09T12:55:43;100530.16;;;23.23;32.19
9523;BME280;63165;43.016;25.784;2023-10-09T12:58:11;100537.81;;;23.29;32.38
9523;BME280;63165;43.016;25.784;2023-10-09T13:00:43;100538.84;;;23.26;32.00
9523;BME280;63165;43.016;25.784;2023-10-09T13:03:15;100532.66;;;23.26;31.93
9523;BME280;63165;43.016;25.784;2023-10-09T13:05:48;100520.75;;;23.32;32.22
9523;BME280;63165;43.016;25.784;2023-10-09T13:08:23;100522.38;;;23.34;32.04
9523;BME280;63165;43.016;25.784;2023-10-09T13:10:57;100514.47;;;23.33;32.04
9523;BME280;63165;43.016;25.784;2023-10-09T13:13:30;100509.13;;;23.33;31.98
9523;BME280;63165;43.016;25.784;2023-10-09T13:16:10;100505.97;;;23.26;32.59
9523;BME280;63165;43.016;25.784;2023-10-09T13:18:41;100499.59;;;23.29;32.79
9523;BME280;63165;43.016;25.784;2023-10-09T13:21:15;100491.47;;;23.30;32.24
9523;BME280;63165;43.016;25.784;2023-10-09T13:23:42;100493.00;;;23.34;32.28
9523;BME280;63165;43.016;25.784;2023-10-09T13:26:13;100487.66;;;23.34;31.58
9523;BME280;63165;43.016;25.784;2023-10-09T13:28:50;100489.66;;;23.31;31.31
9523;BME280;63165;43.016;25.784;2023-10-09T13:31:19;100486.34;;;23.27;32.26
9523;BME280;63165;43.016;25.784;2023-10-09T13:33:51;100472.50;;;23.20;31.14
9523;BME280;63165;43.016;25.784;2023-10-09T13:36:20;100469.16;;;23.17;31.47